Piedmont, South Dakota
Current Conditions -  °F | °C
As of 4:58 PM on Monday 20 Oct 2014 (Local Time) from KRCA Reporting Station
Clear Clear  
Wind Chill: 75°   Ceiling: Unl
Heat Index: 75°   Visibility: 10mi
Dew Point: 47°   Wind: 12mph
Humidity: 37%   Direction: 180°S
Pressure: 29.91"   Gusts: NA
Location:  44.23°N, 103.39°W
Report Text: KRCA 202258Z AUTO 18010KT 10SM CLR 24/08 A2991 RMK AO2 SLP118 T02410084 $
Loading
Personal Weather Stations






























Interactive Weather Map
Tropical Storm Tracking
New forecast layout! Learn more

10-Day Weather Forecast

Advertisements
Track Severe Weather on mobile